EGQL/ADX METAR and TAF weather

Enter ICAO airport designator
Station Type Date Time Source
EGQL METAR 2022/12/10 02:20 UTC NOAA

EGQL 100220Z AUTO 28008KT 9999 // BKN051/// SCT110/// 02/M01 Q1004


Station Type Date Time Source
EGQL Decoded METAR 2022/12/10 02:20 UTC NOAA

Leuchars, United Kingdom (EGQL) 56-23N 002-52W 0M
Dec 09, 2022 - 09:20 PM EST / 2022.12.10 0220 UTC
Wind: from the W (280 degrees) at 9 MPH (8 KT):0
Visibility: greater than 7 mile(s):0
Sky conditions: mostly cloudy
Temperature: 35 F (2 C)
Windchill: 28 F (-2 C):1
Dew Point: 30 F (-1 C)
Relative Humidity: 80%
Pressure (altimeter): 29.65 in. Hg (1004 hPa)
ob: EGQL 100220Z AUTO 28008KT 9999 // BKN051/// SCT110/// 02/M01 Q1004
cycle: 2

Station Type Date Time Source
EGQL TAF 2011/07/27 06:03 UTC NOAA

TAF TAF
AMD EGQL 270424Z 2706/2724 14005KT 9999 BKN020 PROB30
TEMPO 2706/2708 SCT012
BECMG 2708/2710 SCT025

Example: see airport list